Extreme weather reports worldwide

Snow

Station
 
Location
 
Name
 
Wind
Knots
Gust
Knots
Vis
SM
Temp/Dew
C
Baro
inHg
METAR
 
GOH BGGH Nuuk, GL Godthaab / Nuuk Airport 23 37 3/-2 29.70 BGGH 280750Z 16023G37KT 9999 -RASN SCT012 BKN031 03/M02 Q1006
YPO CYPO Peawanuck, CA Peawanuck Airport 8 15 6 -2/-3 30.06 CYPO 280814Z AUTO 36008G15KT 6SM -SN OVC014 M02/M03 A3006 RMK SLP187
SBT USDA Sabetta, RU Sabetta International Airport 19 5.59 -2/-3 29.56 USDA 280800Z 01010MPS 9000 -SN SCT007 M02/M03 Q1001 R04/190058 NOSIG RMK QFE749/0999
LYR ENSB Longyearbyen, NO Svalbard Airport, Longyear 17 4.97 0/-2 30.00 ENSB 280820Z 13017KT 8000 -SN VV016 00/M02 Q1016 NOSIG RMK WIND 1400FT 11009KT
YLT CYLT Alert, CA Alert Airport 13 5 -5/-6 30.07 CYLT 280814Z 34013KT 5SM -SN OVC007 M05/M06 A3007 RMK SC8 DENSITY ALT -2515FT SLP186

Station
 
Location
 
Name
 
Wind
Knots
Gust
Knots
Vis
SM
Temp/Dew
C
Baro
inHg
METAR
 
YFB CYFB Iqaluit, CA Iqaluit Airport 9 30 -4/-7 29.76 CYFB 280800Z 32009KT 30SM -SN OVC019 M04/M07 A2976 RMK SC8 PCPN VRY LGT SLP083
SVA PASA Savoonga, US Savoonga Airport 7 9 -1/-2 29.88 PASA 280756Z AUTO 23007KT 9SM -SN FEW012 OVC018 M02/M03 A2988 RMK AO2 UPE02SNB02 SLP120 P0000 T10171028 FZRANO
YCY CYCY Clyde River, CA Clyde River Airport 5 5 -4/-5 29.65 CYCY 280818Z AUTO 28005KT 5SM -SN BKN050 OVC071 M04/M05 A2965 RMK SLP044
JAV BGJN Ilulissat, GL Ilulissat Airport 4 0/-1 29.73 BGJN 280750Z AUTO 26004KT 240V300 4000NDV -SN OVC010/// M00/M01 Q1007